createdAt,value
2018-05-01T00:00:45.983Z,0.00
2018-05-01T00:01:45.975Z,0.00
2018-05-01T00:02:45.967Z,0.00
2018-05-01T00:03:45.958Z,0.00
2018-05-01T00:04:45.945Z,0.00
2018-05-01T00:05:45.936Z,0.00
2018-05-01T00:06:45.931Z,0.00
2018-05-01T00:07:45.919Z,0.00
2018-05-01T00:08:45.917Z,0.00
2018-05-01T00:09:45.900Z,0.00
2018-05-01T00:10:45.889Z,0.00
2018-05-01T00:11:45.883Z,0.00
2018-05-01T00:12:45.873Z,0.00
2018-05-01T00:13:45.864Z,0.00
2018-05-01T00:14:45.857Z,0.00
2018-05-01T00:15:45.846Z,0.00
2018-05-01T00:16:45.837Z,0.00
2018-05-01T00:17:45.830Z,0.00
2018-05-01T00:18:45.819Z,0.00
2018-05-01T00:19:45.807Z,0.00
2018-05-01T00:20:45.796Z,0.00
2018-05-01T00:21:45.789Z,0.00
2018-05-01T00:22:45.782Z,0.00
2018-05-01T00:23:45.769Z,0.00
2018-05-01T00:24:45.758Z,0.00
2018-05-01T00:25:45.750Z,0.00
2018-05-01T00:26:45.744Z,0.00
2018-05-01T00:27:45.733Z,0.00
2018-05-01T00:28:45.724Z,0.00
2018-05-01T00:29:45.717Z,0.00
2018-05-01T00:30:45.709Z,0.00
2018-05-01T00:31:45.695Z,0.00
2018-05-01T00:32:45.685Z,0.00
2018-05-01T00:33:45.676Z,0.00
2018-05-01T00:34:45.670Z,0.00
2018-05-01T00:35:45.657Z,0.00
2018-05-01T00:36:45.645Z,0.00
2018-05-01T00:37:45.639Z,0.00
2018-05-01T00:38:45.628Z,0.00
2018-05-01T00:39:45.617Z,0.00
2018-05-01T00:40:45.613Z,0.00
2018-05-01T00:41:45.603Z,0.00
2018-05-01T00:42:45.592Z,0.00
2018-05-01T00:43:45.582Z,0.00
2018-05-01T00:44:45.574Z,0.00
2018-05-01T00:45:45.562Z,0.00
2018-05-01T00:46:45.553Z,0.00
2018-05-01T00:47:45.544Z,0.00
2018-05-01T00:48:45.536Z,0.00
2018-05-01T00:49:45.524Z,0.00
2018-05-01T00:50:45.516Z,0.00
2018-05-01T00:51:45.519Z,0.00
2018-05-01T00:52:45.498Z,0.00
2018-05-01T00:53:45.486Z,0.00
2018-05-01T00:54:45.475Z,0.00
2018-05-01T00:55:45.467Z,0.00
2018-05-01T00:56:45.463Z,0.00
2018-05-01T00:57:45.451Z,0.00
2018-05-01T00:58:45.444Z,0.00
2018-05-01T00:59:45.431Z,0.00
2018-05-01T01:00:45.422Z,0.00
2018-05-01T01:01:45.414Z,0.00
2018-05-01T01:02:45.400Z,0.00
2018-05-01T01:03:45.417Z,0.00
2018-05-01T01:04:45.383Z,0.00
2018-05-01T01:05:45.374Z,0.00
2018-05-01T01:06:45.363Z,0.00
2018-05-01T01:07:45.355Z,0.00
2018-05-01T01:08:45.360Z,0.00
2018-05-01T01:09:45.338Z,0.00
2018-05-01T01:10:45.325Z,0.00
2018-05-01T01:11:45.317Z,0.00
2018-05-01T01:12:45.309Z,0.00
2018-05-01T01:13:45.302Z,0.00
2018-05-01T01:14:45.288Z,0.00
2018-05-01T01:15:45.278Z,0.00
2018-05-01T01:16:45.271Z,0.00
2018-05-01T01:17:45.262Z,0.00
2018-05-01T01:18:45.254Z,0.00
2018-05-01T01:19:45.240Z,0.00
2018-05-01T01:20:45.232Z,0.00
2018-05-01T01:21:45.224Z,0.00
2018-05-01T01:22:45.212Z,0.00
2018-05-01T01:23:45.205Z,0.00
2018-05-01T01:24:45.195Z,0.00
2018-05-01T01:25:45.183Z,0.00
2018-05-01T01:26:45.176Z,0.00
2018-05-01T01:27:45.166Z,0.00
2018-05-01T01:28:45.156Z,0.00
2018-05-01T01:29:45.145Z,0.00
2018-05-01T01:30:45.141Z,0.00
2018-05-01T01:31:45.127Z,0.00
2018-05-01T01:32:45.118Z,0.00
2018-05-01T01:33:45.107Z,0.00
2018-05-01T01:34:45.100Z,0.00
2018-05-01T01:35:45.087Z,0.00
2018-05-01T01:36:45.087Z,0.00
2018-05-01T01:37:45.071Z,0.00
2018-05-01T01:38:45.059Z,0.00
2018-05-01T01:39:45.059Z,0.00
2018-05-01T01:40:45.045Z,0.00
2018-05-01T01:41:45.028Z,0.00
2018-05-01T01:42:45.021Z,0.00
2018-05-01T01:43:45.009Z,0.00
2018-05-01T01:44:45.001Z,0.00
2018-05-01T01:45:44.993Z,0.00
2018-05-01T01:46:44.983Z,0.00
2018-05-01T01:47:44.976Z,0.00
2018-05-01T01:48:44.963Z,0.00
2018-05-01T01:49:44.956Z,0.00
2018-05-01T01:50:44.943Z,0.00
2018-05-01T01:51:44.932Z,0.00
2018-05-01T01:52:44.921Z,0.00
2018-05-01T01:53:44.916Z,0.00
2018-05-01T01:54:44.904Z,0.00
2018-05-01T01:55:44.894Z,0.00
2018-05-01T01:56:44.887Z,0.00
2018-05-01T02:34:36.969Z,0.00
2018-05-01T02:35:36.873Z,0.00
2018-05-01T02:36:36.849Z,0.00
2018-05-01T02:37:36.847Z,0.00
2018-05-01T02:38:36.836Z,0.00
2018-05-01T02:39:36.830Z,0.00
2018-05-01T02:40:36.816Z,0.00
2018-05-01T02:41:36.833Z,0.00
2018-05-01T02:42:36.799Z,0.00
2018-05-01T02:43:36.807Z,0.00
2018-05-01T02:44:36.794Z,0.00
2018-05-01T02:45:36.777Z,0.00
2018-05-01T02:46:36.762Z,0.00
2018-05-01T02:47:36.754Z,0.00
2018-05-01T02:48:36.747Z,0.00
2018-05-01T02:49:36.738Z,0.00
2018-05-01T02:50:36.728Z,0.00
2018-05-01T02:51:36.724Z,0.00
2018-05-01T02:52:36.716Z,0.00
2018-05-01T02:53:36.705Z,0.00
2018-05-01T02:54:36.694Z,0.00
2018-05-01T02:55:36.694Z,0.00
2018-05-01T02:56:36.683Z,0.00
2018-05-01T02:57:36.671Z,0.00
2018-05-01T02:58:36.667Z,0.00
2018-05-01T02:59:36.656Z,0.00
2018-05-01T03:00:36.652Z,0.00
2018-05-01T03:01:36.645Z,0.00
2018-05-01T03:02:36.633Z,0.00
2018-05-01T03:03:36.626Z,0.00
2018-05-01T03:04:36.620Z,0.00
2018-05-01T03:05:36.620Z,0.00
2018-05-01T03:06:36.603Z,0.00
2018-05-01T03:07:36.594Z,0.00
2018-05-01T03:08:36.587Z,0.00
2018-05-01T03:09:36.583Z,0.00
2018-05-01T03:10:36.576Z,0.00
2018-05-01T03:11:36.565Z,0.00
2018-05-01T03:12:36.560Z,0.00
2018-05-01T03:13:36.549Z,0.00
2018-05-01T03:14:36.545Z,0.00
2018-05-01T03:15:36.541Z,0.00
2018-05-01T03:16:36.527Z,0.00
2018-05-01T03:17:36.523Z,0.00
2018-05-01T03:18:36.514Z,0.00
2018-05-01T03:19:36.508Z,0.00
2018-05-01T03:20:36.502Z,0.00
2018-05-01T03:21:36.496Z,0.00
2018-05-01T03:22:36.483Z,0.00
2018-05-01T03:23:36.477Z,0.00
2018-05-01T03:24:36.474Z,0.00
2018-05-01T03:25:36.465Z,0.00
2018-05-01T03:26:36.457Z,0.00
2018-05-01T03:27:36.452Z,0.00
2018-05-01T03:28:36.440Z,0.00
2018-05-01T03:29:36.434Z,0.00
2018-05-01T03:30:36.425Z,0.00
2018-05-01T03:31:36.419Z,0.00
2018-05-01T03:32:36.411Z,0.00
2018-05-01T03:33:36.404Z,0.00
2018-05-01T03:34:36.396Z,0.00
2018-05-01T03:35:36.392Z,0.00
2018-05-01T03:36:36.380Z,0.00
2018-05-01T03:37:36.376Z,0.00
2018-05-01T03:38:36.366Z,0.00
2018-05-01T03:39:36.362Z,0.00
2018-05-01T03:40:36.352Z,0.00
2018-05-01T03:41:36.346Z,0.00
2018-05-01T03:42:36.338Z,0.00
2018-05-01T03:43:36.330Z,0.00
2018-05-01T03:44:36.322Z,0.00
2018-05-01T03:45:36.315Z,0.00
2018-05-01T03:46:36.305Z,0.00
2018-05-01T03:47:36.297Z,0.00
2018-05-01T03:48:36.294Z,0.00
2018-05-01T03:49:36.284Z,0.00
2018-05-01T03:50:36.279Z,0.00
2018-05-01T03:51:36.275Z,0.00
2018-05-01T03:52:36.262Z,0.00
2018-05-01T03:53:36.257Z,0.00
2018-05-01T03:54:36.244Z,0.00
2018-05-01T03:55:36.242Z,0.00
2018-05-01T03:56:36.232Z,0.00
2018-05-01T03:57:36.227Z,0.00
2018-05-01T03:58:36.220Z,0.00
2018-05-01T03:59:36.210Z,0.00
2018-05-01T04:00:36.205Z,0.00
2018-05-01T04:01:36.204Z,0.00
2018-05-01T04:02:36.187Z,0.00
2018-05-01T04:03:36.182Z,0.00
2018-05-01T04:04:36.172Z,0.00
2018-05-01T04:05:36.166Z,0.00
2018-05-01T04:06:36.161Z,0.00
2018-05-01T04:07:36.148Z,0.00
2018-05-01T04:08:36.144Z,0.00
2018-05-01T04:09:36.134Z,0.00
2018-05-01T04:10:36.129Z,0.00
2018-05-01T04:11:36.120Z,0.00
2018-05-01T04:12:36.113Z,0.00
2018-05-01T04:13:36.109Z,0.00
2018-05-01T04:14:36.097Z,0.00
2018-05-01T04:15:36.093Z,0.00
2018-05-01T04:16:36.082Z,0.00
2018-05-01T04:17:36.077Z,0.00
2018-05-01T04:18:36.067Z,0.00
2018-05-01T04:19:36.058Z,0.00
2018-05-01T04:20:36.053Z,0.00
2018-05-01T04:21:36.044Z,0.00
2018-05-01T04:22:36.038Z,0.00
2018-05-01T04:23:36.031Z,0.00
2018-05-01T04:24:36.020Z,0.00
2018-05-01T04:25:36.012Z,0.00
2018-05-01T04:26:36.008Z,0.00
2018-05-01T04:27:35.998Z,0.00
2018-05-01T04:28:35.988Z,0.00
2018-05-01T04:29:35.986Z,0.00
2018-05-01T04:30:35.974Z,0.00
2018-05-01T04:31:35.970Z,0.00
2018-05-01T04:32:35.963Z,0.00
2018-05-01T04:33:35.952Z,0.00
2018-05-01T04:34:35.944Z,0.00
2018-05-01T04:35:35.936Z,0.00
2018-05-01T04:36:35.928Z,0.00
2018-05-01T04:37:35.920Z,0.00
2018-05-01T04:38:35.911Z,0.00
2018-05-01T04:39:35.905Z,0.00
2018-05-01T04:40:35.903Z,0.00
2018-05-01T04:41:35.887Z,0.00
2018-05-01T04:42:35.884Z,0.00
2018-05-01T04:43:35.873Z,5.63
2018-05-01T04:44:35.868Z,5.63
2018-05-01T04:45:35.861Z,5.63
2018-05-01T04:46:35.849Z,5.63
2018-05-01T04:47:35.847Z,5.63
2018-05-01T04:48:35.840Z,5.63
2018-05-01T04:49:35.830Z,5.63
2018-05-01T04:50:35.822Z,5.63
2018-05-01T04:51:35.897Z,5.63
2018-05-01T04:52:35.804Z,5.63
2018-05-01T04:53:35.797Z,5.63
2018-05-01T04:54:35.791Z,5.63
2018-05-01T04:55:35.782Z,5.63
2018-05-01T04:56:35.775Z,5.63
2018-05-01T04:57:35.768Z,5.63
2018-05-01T04:58:35.778Z,5.63
2018-05-01T04:59:35.752Z,5.63
2018-05-01T05:00:35.742Z,11.25
2018-05-01T05:01:35.735Z,11.25
2018-05-01T05:02:35.728Z,11.25
2018-05-01T05:03:35.721Z,11.25
2018-05-01T05:04:35.709Z,11.25
2018-05-01T05:05:35.703Z,11.25
2018-05-01T05:06:35.702Z,11.25
2018-05-01T05:07:35.685Z,11.25
2018-05-01T05:08:35.680Z,11.25
2018-05-01T05:09:35.801Z,11.25
2018-05-01T05:10:35.668Z,11.25
2018-05-01T05:11:35.656Z,11.25
2018-05-01T05:12:35.649Z,11.25
2018-05-01T05:13:35.645Z,11.25
2018-05-01T05:14:35.630Z,11.25
2018-05-01T05:15:35.625Z,11.25
2018-05-01T05:16:35.617Z,11.25
2018-05-01T05:17:35.613Z,11.25
2018-05-01T05:18:35.601Z,11.25
2018-05-01T05:19:35.593Z,11.25
2018-05-01T05:20:35.588Z,11.25
2018-05-01T05:21:35.579Z,11.25
2018-05-01T05:22:35.573Z,11.25
2018-05-01T05:23:35.565Z,11.25
2018-05-01T05:24:35.558Z,11.25
2018-05-01T05:25:35.550Z,11.25
2018-05-01T05:26:35.539Z,11.25
2018-05-01T05:27:35.533Z,11.25
2018-05-01T05:28:35.527Z,11.25
2018-05-01T05:29:35.514Z,11.25
2018-05-01T05:30:35.508Z,11.25
2018-05-01T05:31:35.507Z,11.25
2018-05-01T05:32:35.496Z,11.25
2018-05-01T05:33:35.488Z,11.25
2018-05-01T05:34:35.480Z,11.25
2018-05-01T05:35:35.475Z,11.25
2018-05-01T05:36:35.462Z,11.25
2018-05-01T05:37:35.456Z,11.25
2018-05-01T05:38:35.447Z,11.25
2018-05-01T05:39:35.439Z,11.25
2018-05-01T05:40:35.433Z,16.88
2018-05-01T05:41:35.425Z,16.88
2018-05-01T05:42:35.414Z,16.88
2018-05-01T05:43:35.409Z,16.88
2018-05-01T05:44:35.401Z,16.88
2018-05-01T05:45:35.404Z,16.88
2018-05-01T05:46:35.386Z,16.88
2018-05-01T05:47:35.377Z,16.88
2018-05-01T05:48:35.370Z,16.88
2018-05-01T05:49:35.360Z,16.88
2018-05-01T05:50:35.356Z,16.88
2018-05-01T05:51:35.347Z,16.88
2018-05-01T05:52:35.339Z,16.88
2018-05-01T05:53:35.329Z,16.88
2018-05-01T05:54:35.320Z,16.88
2018-05-01T05:55:35.315Z,16.88
2018-05-01T05:56:35.367Z,16.88
2018-05-01T05:57:35.299Z,16.88
2018-05-01T05:58:35.292Z,16.88
2018-05-01T05:59:35.282Z,16.88
2018-05-01T06:00:35.276Z,16.88
2018-05-01T06:01:35.273Z,16.88
2018-05-01T06:02:35.264Z,16.88
2018-05-01T06:03:35.256Z,16.88
2018-05-01T06:04:35.245Z,16.88
2018-05-01T06:05:35.241Z,16.88
2018-05-01T06:06:35.228Z,16.88
2018-05-01T06:07:35.225Z,16.88
2018-05-01T06:08:35.215Z,16.88
2018-05-01T06:09:35.211Z,16.88
2018-05-01T06:10:35.199Z,16.88
2018-05-01T06:11:35.194Z,16.88
2018-05-01T06:12:35.183Z,16.88
2018-05-01T06:13:35.278Z,16.88
2018-05-01T06:14:35.172Z,16.88
2018-05-01T06:15:35.161Z,16.88
2018-05-01T06:16:35.153Z,16.88
2018-05-01T06:17:35.146Z,16.88
2018-05-01T06:18:35.140Z,16.88
2018-05-01T06:19:35.133Z,16.88
2018-05-01T06:20:35.122Z,22.50
2018-05-01T06:21:35.118Z,22.50
2018-05-01T06:22:35.107Z,22.50
2018-05-01T06:23:35.098Z,22.50
2018-05-01T06:24:35.092Z,22.50
2018-05-01T06:25:35.088Z,22.50
2018-05-01T06:26:35.081Z,22.50
2018-05-01T06:27:35.074Z,22.50
2018-05-01T06:28:35.064Z,22.50
2018-05-01T06:29:35.056Z,22.50
2018-05-01T06:30:35.049Z,22.50
2018-05-01T06:31:35.041Z,22.50
2018-05-01T06:32:35.032Z,22.50
2018-05-01T06:33:35.025Z,22.50
2018-05-01T06:34:35.017Z,22.50
2018-05-01T06:35:35.012Z,22.50
2018-05-01T06:36:35.003Z,22.50
2018-05-01T06:37:34.996Z,22.50
2018-05-01T06:38:34.985Z,28.13
2018-05-01T06:39:34.980Z,28.13
2018-05-01T06:40:34.971Z,28.13
2018-05-01T06:41:34.963Z,28.13
2018-05-01T06:42:34.956Z,22.50
2018-05-01T06:43:34.949Z,28.13
2018-05-01T06:44:34.947Z,28.13
2018-05-01T06:45:34.937Z,28.13
2018-05-01T06:46:34.926Z,28.13
2018-05-01T06:47:34.923Z,28.13
2018-05-01T06:48:34.912Z,28.13
2018-05-01T06:49:34.905Z,28.13
2018-05-01T06:50:34.895Z,28.13
2018-05-01T06:51:34.891Z,28.13
2018-05-01T06:52:34.884Z,28.13
2018-05-01T06:53:34.873Z,28.13
2018-05-01T06:54:34.867Z,28.13
2018-05-01T06:55:34.863Z,28.13
2018-05-01T06:56:34.850Z,28.13
2018-05-01T06:57:34.845Z,28.13
2018-05-01T06:58:34.837Z,28.13
2018-05-01T06:59:34.831Z,28.13
2018-05-01T07:00:34.820Z,28.13
2018-05-01T07:01:34.819Z,28.13
2018-05-01T07:02:34.807Z,22.50
2018-05-01T07:03:34.809Z,22.50
2018-05-01T07:04:34.893Z,28.13
2018-05-01T07:05:34.788Z,28.13
2018-05-01T07:06:34.779Z,28.13
2018-05-01T07:07:34.769Z,28.13
2018-05-01T07:08:34.765Z,28.13
2018-05-01T07:09:34.754Z,33.75
2018-05-01T07:10:34.751Z,33.75
2018-05-01T07:11:34.742Z,33.75
2018-05-01T07:12:34.734Z,33.75
2018-05-01T07:13:34.731Z,33.75
2018-05-01T07:14:34.717Z,33.75
2018-05-01T07:15:34.712Z,33.75
2018-05-01T07:16:34.705Z,39.38
2018-05-01T07:17:34.699Z,39.38
2018-05-01T07:18:34.689Z,39.38
2018-05-01T07:19:34.682Z,33.75
2018-05-01T07:20:34.676Z,33.75
2018-05-01T07:21:34.674Z,33.75
2018-05-01T07:22:34.663Z,39.38
2018-05-01T07:23:34.658Z,39.38
2018-05-01T07:24:34.652Z,45.00
2018-05-01T07:25:34.648Z,45.00
2018-05-01T07:26:34.651Z,45.00
2018-05-01T07:27:34.650Z,45.00
2018-05-01T07:28:34.618Z,39.38
2018-05-01T07:29:34.610Z,39.38
2018-05-01T07:30:34.602Z,39.38
2018-05-01T07:32:17.018Z,39.38
2018-05-01T07:33:17.009Z,39.38
2018-05-01T07:34:17.008Z,39.38
2018-05-01T07:35:16.998Z,39.38
2018-05-01T07:36:16.989Z,39.38
2018-05-01T07:37:16.979Z,39.38
2018-05-01T07:38:16.970Z,39.38
2018-05-01T07:39:16.959Z,39.38
2018-05-01T07:40:16.952Z,39.38
2018-05-01T07:41:16.949Z,39.38
2018-05-01T07:42:16.936Z,45.00
2018-05-01T07:43:16.926Z,45.00
2018-05-01T07:44:16.918Z,45.00
2018-05-01T07:45:16.910Z,45.00
2018-05-01T07:46:16.902Z,45.00
2018-05-01T07:47:16.892Z,45.00
2018-05-01T07:48:16.877Z,45.00
2018-05-01T07:49:16.871Z,45.00
2018-05-01T07:50:16.860Z,45.00
2018-05-01T07:51:16.855Z,45.00
2018-05-01T07:52:16.842Z,45.00
2018-05-01T07:53:16.834Z,45.00
2018-05-01T07:54:16.823Z,50.63
2018-05-01T07:55:16.817Z,50.63
2018-05-01T07:56:16.810Z,50.63
2018-05-01T07:57:16.793Z,56.25
2018-05-01T07:58:16.787Z,56.25
2018-05-01T07:59:16.777Z,56.25
2018-05-01T08:00:16.782Z,56.25
2018-05-01T08:01:16.756Z,50.63
2018-05-01T08:02:16.750Z,50.63
2018-05-01T08:03:16.742Z,56.25
2018-05-01T08:04:16.730Z,56.25
2018-05-01T08:05:16.716Z,56.25
2018-05-01T08:06:16.706Z,50.63
2018-05-01T08:07:16.699Z,50.63
2018-05-01T08:08:16.689Z,50.63
2018-05-01T08:09:16.678Z,50.63
2018-05-01T08:10:16.667Z,50.63
2018-05-01T08:11:16.660Z,45.00
2018-05-01T08:12:16.650Z,45.00
2018-05-01T08:13:16.642Z,45.00
2018-05-01T08:14:16.628Z,45.00
2018-05-01T08:15:16.623Z,45.00
2018-05-01T08:16:16.611Z,45.00
2018-05-01T08:17:16.600Z,45.00
2018-05-01T08:18:16.594Z,45.00
2018-05-01T08:19:16.583Z,45.00
2018-05-01T08:20:16.569Z,45.00
2018-05-01T08:21:16.563Z,45.00
2018-05-01T08:22:16.553Z,45.00
2018-05-01T08:23:16.541Z,45.00
2018-05-01T08:24:16.531Z,45.00
2018-05-01T08:25:16.523Z,45.00
2018-05-01T08:26:16.513Z,45.00
2018-05-01T08:27:16.503Z,45.00
2018-05-01T08:28:16.491Z,45.00
2018-05-01T08:29:16.482Z,45.00
2018-05-01T08:30:16.475Z,45.00
2018-05-01T08:31:16.462Z,50.63
2018-05-01T08:32:16.455Z,50.63
2018-05-01T08:33:16.441Z,50.63
2018-05-01T08:34:16.436Z,50.63
2018-05-01T08:35:16.422Z,56.25
2018-05-01T08:36:16.416Z,56.25
2018-05-01T08:37:16.409Z,56.25
2018-05-01T08:38:16.394Z,56.25
2018-05-01T08:39:16.385Z,50.63
2018-05-01T08:40:16.375Z,50.63
2018-05-01T08:41:16.361Z,50.63
2018-05-01T08:42:16.352Z,50.63
2018-05-01T08:43:16.341Z,50.63
2018-05-01T08:44:16.331Z,50.63
2018-05-01T08:45:16.358Z,50.63
2018-05-01T08:46:16.313Z,50.63
2018-05-01T08:47:16.302Z,50.63
2018-05-01T08:48:16.293Z,50.63
2018-05-01T08:49:16.282Z,50.63
2018-05-01T08:50:16.274Z,50.63
2018-05-01T08:51:16.263Z,45.00
2018-05-01T08:52:16.250Z,45.00
2018-05-01T08:53:16.243Z,45.00
2018-05-01T08:54:16.231Z,50.63
2018-05-01T08:55:16.222Z,50.63
2018-05-01T08:56:16.219Z,56.25
2018-05-01T08:57:16.260Z,56.25
2018-05-01T08:58:16.193Z,61.88
2018-05-01T08:59:16.184Z,61.88
2018-05-01T09:00:16.172Z,67.50
2018-05-01T09:01:16.164Z,67.50
2018-05-01T09:02:16.150Z,67.50
2018-05-01T09:03:16.144Z,73.13
2018-05-01T09:04:16.222Z,73.13
2018-05-01T09:05:16.121Z,73.13
2018-05-01T09:06:16.115Z,78.75
2018-05-01T09:07:16.103Z,78.75
2018-05-01T09:08:16.092Z,84.38
2018-05-01T09:09:16.084Z,84.38
2018-05-01T09:10:16.073Z,84.38
2018-05-01T09:11:16.063Z,90.00
2018-05-01T09:12:16.056Z,90.00
2018-05-01T09:13:16.048Z,95.63
2018-05-01T09:14:16.034Z,95.63
2018-05-01T09:15:16.026Z,101.25
2018-05-01T09:16:16.018Z,106.88
2018-05-01T09:17:16.007Z,106.88
2018-05-01T09:18:16.143Z,112.50
2018-05-01T09:19:15.985Z,112.50
2018-05-01T09:20:15.979Z,118.13
2018-05-01T09:21:15.970Z,123.75
2018-05-01T09:22:15.964Z,123.75
2018-05-01T09:23:15.951Z,123.75
2018-05-01T09:24:15.940Z,129.38
2018-05-01T09:25:15.931Z,129.38
2018-05-01T09:26:15.919Z,129.38
2018-05-01T09:27:15.917Z,135.00
2018-05-01T09:28:15.906Z,135.00
2018-05-01T09:29:15.894Z,129.38
2018-05-01T09:30:15.960Z,129.38
2018-05-01T09:31:15.876Z,129.38
2018-05-01T09:32:15.867Z,135.00
2018-05-01T09:33:15.857Z,135.00
2018-05-01T09:34:15.855Z,135.00
2018-05-01T09:35:15.927Z,140.63
2018-05-01T09:36:15.833Z,140.63
2018-05-01T09:37:15.824Z,146.25
2018-05-01T09:38:15.817Z,146.25
2018-05-01T09:39:15.807Z,151.88
2018-05-01T09:40:15.798Z,157.50
2018-05-01T09:41:15.793Z,151.88
2018-05-01T09:42:15.782Z,151.88
2018-05-01T09:43:15.775Z,151.88
2018-05-01T09:44:15.762Z,146.25
2018-05-01T09:45:15.761Z,146.25
2018-05-01T09:46:15.749Z,146.25
2018-05-01T09:47:15.738Z,135.00
2018-05-01T09:48:15.732Z,135.00
2018-05-01T09:49:15.742Z,135.00
2018-05-01T09:50:15.723Z,140.63
2018-05-01T09:51:15.712Z,140.63
2018-05-01T09:52:15.720Z,135.00
2018-05-01T09:53:15.749Z,135.00
2018-05-01T09:54:15.680Z,140.63
2018-05-01T09:55:15.675Z,146.25
2018-05-01T09:56:15.667Z,146.25
2018-05-01T09:57:15.657Z,146.25
2018-05-01T09:58:15.648Z,146.25
2018-05-01T09:59:15.641Z,146.25
2018-05-01T10:00:15.636Z,146.25
2018-05-01T10:01:15.625Z,140.63
2018-05-01T10:02:15.615Z,140.63
2018-05-01T10:03:15.606Z,135.00
2018-05-01T10:04:15.602Z,129.38
2018-05-01T10:05:15.590Z,118.13
2018-05-01T10:06:15.585Z,123.75
2018-05-01T10:07:15.578Z,123.75
2018-05-01T10:08:15.570Z,129.38
2018-05-01T10:09:15.560Z,129.38
2018-05-01T10:10:15.555Z,123.75
2018-05-01T10:11:15.550Z,129.38
2018-05-01T10:12:15.596Z,123.75
2018-05-01T10:13:15.532Z,135.00
2018-05-01T10:14:15.523Z,135.00
2018-05-01T10:15:15.517Z,135.00
2018-05-01T10:16:15.509Z,135.00
2018-05-01T10:17:15.499Z,129.38
2018-05-01T10:18:15.495Z,129.38
2018-05-01T10:19:15.489Z,129.38
2018-05-01T10:20:15.481Z,135.00
2018-05-01T10:21:15.479Z,146.25
2018-05-01T10:22:15.466Z,151.88
2018-05-01T10:23:15.455Z,157.50
2018-05-01T10:24:15.450Z,151.88
2018-05-01T10:25:15.441Z,146.25
2018-05-01T10:26:15.434Z,140.63
2018-05-01T10:27:15.423Z,135.00
2018-05-01T10:28:15.418Z,135.00
2018-05-01T10:29:15.411Z,129.38
2018-05-01T10:30:15.403Z,129.38
2018-05-01T10:31:15.397Z,129.38
2018-05-01T10:32:15.395Z,129.38
2018-05-01T10:33:15.383Z,129.38
2018-05-01T10:34:15.373Z,129.38
2018-05-01T10:35:15.371Z,135.00
2018-05-01T10:36:15.360Z,129.38
2018-05-01T10:37:15.353Z,129.38
2018-05-01T10:38:15.344Z,135.00
2018-05-01T10:39:15.338Z,135.00
2018-05-01T10:40:15.330Z,135.00
2018-05-01T10:41:15.323Z,140.63
2018-05-01T10:42:15.321Z,140.63
2018-05-01T10:43:15.325Z,135.00
2018-05-01T10:44:15.305Z,135.00
2018-05-01T10:45:15.297Z,135.00
2018-05-01T10:46:15.291Z,135.00
2018-05-01T10:47:15.284Z,135.00
2018-05-01T10:48:15.275Z,135.00
2018-05-01T10:49:15.266Z,129.38
2018-05-01T10:50:15.263Z,129.38
2018-05-01T10:51:15.255Z,129.38
2018-05-01T10:52:15.247Z,129.38
2018-05-01T10:53:15.240Z,129.38
2018-05-01T10:54:15.238Z,129.38
2018-05-01T10:55:15.227Z,129.38
2018-05-01T10:56:15.224Z,129.38
2018-05-01T10:57:15.211Z,129.38
2018-05-01T10:58:15.210Z,129.38
2018-05-01T10:59:15.201Z,129.38
2018-05-01T11:00:15.196Z,135.00
2018-05-01T11:01:15.190Z,135.00
2018-05-01T11:02:15.180Z,129.38
2018-05-01T11:03:15.177Z,129.38
2018-05-01T11:04:15.165Z,129.38
2018-05-01T11:05:15.161Z,129.38
2018-05-01T11:06:15.154Z,129.38
2018-05-01T11:07:15.147Z,129.38
2018-05-01T11:08:15.146Z,129.38
2018-05-01T11:09:15.131Z,129.38
2018-05-01T11:10:15.130Z,129.38
2018-05-01T11:11:15.124Z,129.38
2018-05-01T11:12:15.115Z,135.00
2018-05-01T11:13:15.106Z,135.00
2018-05-01T11:14:15.099Z,135.00
2018-05-01T11:15:15.095Z,135.00
2018-05-01T11:16:15.094Z,129.38
2018-05-01T11:17:15.085Z,129.38
2018-05-01T11:18:15.074Z,123.75
2018-05-01T11:19:15.072Z,123.75
2018-05-01T11:20:15.073Z,123.75
2018-05-01T11:21:15.059Z,129.38
2018-05-01T11:22:15.047Z,129.38
2018-05-01T11:23:15.045Z,135.00
2018-05-01T11:24:15.039Z,123.75
2018-05-01T11:25:15.032Z,123.75
2018-05-01T11:26:15.234Z,118.13
2018-05-01T11:27:15.022Z,118.13
2018-05-01T11:28:15.026Z,118.13
2018-05-01T11:29:15.006Z,118.13
2018-05-01T11:30:15.000Z,112.50
2018-05-01T11:31:14.993Z,112.50
2018-05-01T11:32:14.988Z,112.50
2018-05-01T11:33:14.980Z,106.88
2018-05-01T11:34:14.975Z,106.88
2018-05-01T11:35:14.968Z,106.88
2018-05-01T11:36:14.963Z,106.88
2018-05-01T11:37:14.956Z,106.88
2018-05-01T11:38:14.948Z,106.88
2018-05-01T11:39:14.942Z,106.88
2018-05-01T11:40:14.940Z,106.88
2018-05-01T11:41:14.929Z,106.88
2018-05-01T11:42:14.926Z,101.25
2018-05-01T11:43:14.924Z,95.63
2018-05-01T11:44:14.915Z,84.38
2018-05-01T11:45:14.906Z,78.75
2018-05-01T11:46:14.902Z,78.75
2018-05-01T11:47:14.905Z,73.13
2018-05-01T11:48:14.886Z,73.13
2018-05-01T11:49:14.878Z,73.13
2018-05-01T11:50:14.872Z,73.13
2018-05-01T11:51:14.862Z,73.13
2018-05-01T11:52:14.861Z,73.13
2018-05-01T11:53:14.852Z,73.13
2018-05-01T11:54:14.846Z,73.13
2018-05-01T11:55:14.844Z,78.75
2018-05-01T11:56:14.833Z,78.75
2018-05-01T11:57:14.824Z,84.38
2018-05-01T11:58:14.815Z,84.38
2018-05-01T11:59:14.809Z,90.00
2018-05-01T12:00:14.807Z,95.63
2018-05-01T12:01:14.802Z,95.63
2018-05-01T12:02:14.790Z,101.25
2018-05-01T12:03:14.785Z,106.88
2018-05-01T12:04:14.776Z,106.88
2018-05-01T12:05:14.774Z,106.88
2018-05-01T12:06:14.769Z,106.88
2018-05-01T12:07:14.754Z,101.25
2018-05-01T12:08:14.752Z,101.25
2018-05-01T12:09:14.746Z,101.25
2018-05-01T12:10:14.739Z,101.25
2018-05-01T12:11:14.732Z,95.63
2018-05-01T12:12:14.724Z,95.63
2018-05-01T12:13:14.717Z,95.63
2018-05-01T12:14:14.712Z,95.63
2018-05-01T12:15:14.704Z,95.63
2018-05-01T12:16:14.781Z,95.63
2018-05-01T12:17:14.696Z,101.25
2018-05-01T12:18:14.687Z,95.63
2018-05-01T12:19:14.683Z,90.00
2018-05-01T12:20:14.673Z,90.00
2018-05-01T12:21:14.670Z,84.38
2018-05-01T12:22:14.661Z,84.38
2018-05-01T12:23:14.655Z,78.75
2018-05-01T12:24:14.646Z,78.75
2018-05-01T12:25:14.640Z,78.75
2018-05-01T12:26:14.633Z,78.75
2018-05-01T12:27:14.635Z,78.75
2018-05-01T12:28:14.619Z,78.75
2018-05-01T12:29:14.614Z,78.75
2018-05-01T12:30:14.607Z,78.75
2018-05-01T12:31:14.600Z,73.13
2018-05-01T12:32:14.594Z,73.13
2018-05-01T12:33:14.589Z,73.13
2018-05-01T12:34:14.582Z,78.75
2018-05-01T12:35:14.575Z,78.75
2018-05-01T12:36:14.570Z,78.75
2018-05-01T12:37:14.561Z,78.75
2018-05-01T12:38:14.556Z,78.75
2018-05-01T12:39:14.546Z,78.75
2018-05-01T12:40:14.542Z,78.75
2018-05-01T12:41:14.536Z,78.75
2018-05-01T12:42:14.534Z,78.75
2018-05-01T12:43:14.524Z,78.75
2018-05-01T12:44:14.516Z,78.75
2018-05-01T12:45:14.511Z,78.75
2018-05-01T12:46:14.502Z,78.75
2018-05-01T12:47:14.495Z,84.38
2018-05-01T12:48:14.528Z,84.38
2018-05-01T12:49:14.481Z,90.00
2018-05-01T12:50:14.475Z,95.63
2018-05-01T12:51:14.470Z,95.63
2018-05-01T12:52:14.463Z,101.25
2018-05-01T12:53:14.456Z,106.88
2018-05-01T12:54:14.449Z,106.88
2018-05-01T12:55:14.449Z,106.88
2018-05-01T12:56:14.438Z,106.88
2018-05-01T12:57:14.434Z,112.50
2018-05-01T12:58:14.426Z,106.88
2018-05-01T12:59:14.498Z,101.25
2018-05-01T13:00:14.414Z,101.25
2018-05-01T13:01:14.405Z,95.63
2018-05-01T13:02:14.404Z,95.63
2018-05-01T13:03:14.391Z,90.00
2018-05-01T13:04:14.390Z,90.00
2018-05-01T13:05:14.394Z,90.00
2018-05-01T13:06:14.372Z,90.00
2018-05-01T13:07:14.368Z,90.00
2018-05-01T13:08:14.362Z,84.38
2018-05-01T13:09:14.396Z,90.00
2018-05-01T13:10:14.349Z,90.00
2018-05-01T13:11:14.341Z,90.00
2018-05-01T13:12:14.336Z,84.38
2018-05-01T13:13:14.328Z,84.38
2018-05-01T13:14:14.322Z,84.38
2018-05-01T13:15:14.315Z,90.00
2018-05-01T13:16:14.313Z,90.00
2018-05-01T13:17:14.300Z,95.63
2018-05-01T13:18:14.297Z,95.63
2018-05-01T13:19:14.288Z,101.25
2018-05-01T13:20:14.285Z,106.88
2018-05-01T13:21:14.276Z,106.88
2018-05-01T13:22:14.270Z,112.50
2018-05-01T13:23:14.262Z,112.50
2018-05-01T13:24:14.259Z,118.13
2018-05-01T13:25:14.249Z,118.13
2018-05-01T13:26:14.244Z,118.13
2018-05-01T13:27:14.245Z,118.13
2018-05-01T13:28:14.231Z,118.13
2018-05-01T13:29:14.224Z,123.75
2018-05-01T13:30:14.215Z,123.75
2018-05-01T13:31:14.211Z,123.75
2018-05-01T13:32:14.204Z,129.38
2018-05-01T13:33:14.198Z,135.00